createdAt,value
2023-05-12T00:00:00.052Z,92
2023-05-12T00:03:25.303Z,91
2023-05-12T00:06:50.394Z,92
2023-05-12T00:10:15.558Z,92
2023-05-12T00:13:40.797Z,92
2023-05-12T00:17:05.914Z,92
2023-05-12T00:20:31.461Z,92
2023-05-12T00:23:56.595Z,92
2023-05-12T00:27:21.772Z,92
2023-05-12T00:30:46.938Z,91
2023-05-12T00:34:12.131Z,92
2023-05-12T00:37:37.380Z,91
2023-05-12T00:41:02.486Z,91
2023-05-12T00:44:27.652Z,92
2023-05-12T00:47:52.865Z,92
2023-05-12T00:51:18.016Z,92
2023-05-12T00:54:43.192Z,91
2023-05-12T00:58:08.386Z,92
2023-05-12T01:01:33.703Z,92
2023-05-12T01:04:58.722Z,92
2023-05-12T01:08:23.922Z,92
2023-05-12T01:11:49.115Z,92
2023-05-12T01:15:14.267Z,92
2023-05-12T01:18:39.471Z,91
2023-05-12T01:22:04.637Z,92
2023-05-12T01:25:29.820Z,91
2023-05-12T01:28:55.040Z,91
2023-05-12T01:32:20.192Z,91
2023-05-12T01:35:45.370Z,91
2023-05-12T01:39:10.520Z,91
2023-05-12T01:42:35.706Z,91
2023-05-12T01:46:00.913Z,91
2023-05-12T01:49:26.017Z,90
2023-05-12T01:52:51.177Z,90
2023-05-12T01:56:16.349Z,91
2023-05-12T01:59:41.512Z,91
2023-05-12T02:03:06.797Z,91
2023-05-12T02:06:31.889Z,91
2023-05-12T02:09:57.081Z,90
2023-05-12T02:13:22.235Z,90
2023-05-12T02:21:24.266Z,89
2023-05-12T02:24:49.375Z,89
2023-05-12T02:28:14.534Z,89
2023-05-12T02:31:39.684Z,88
2023-05-12T02:35:04.894Z,88
2023-05-12T02:38:30.255Z,88
2023-05-12T02:41:55.249Z,89
2023-05-12T02:45:20.401Z,90
2023-05-12T02:48:45.566Z,90
2023-05-12T02:52:10.744Z,91
2023-05-12T02:55:35.919Z,91
2023-05-12T02:59:01.095Z,91
2023-05-12T03:02:26.289Z,90
2023-05-12T03:05:51.380Z,91
2023-05-12T03:09:16.549Z,91
2023-05-12T03:12:41.748Z,91
2023-05-12T03:16:06.895Z,91
2023-05-12T03:19:32.043Z,91
2023-05-12T03:22:57.212Z,91
2023-05-12T03:26:22.412Z,91
2023-05-12T03:29:47.595Z,91
2023-05-12T03:33:12.744Z,90
2023-05-12T03:36:37.893Z,90
2023-05-12T03:40:03.058Z,89
2023-05-12T03:43:28.225Z,89
2023-05-12T03:46:53.606Z,89
2023-05-12T03:50:18.702Z,89
2023-05-12T03:53:43.785Z,88
2023-05-12T03:57:08.988Z,88
2023-05-12T04:00:34.257Z,88
2023-05-12T04:03:59.345Z,87
2023-05-12T04:07:24.448Z,87
2023-05-12T04:10:49.590Z,88
2023-05-12T04:14:14.746Z,87
2023-05-12T04:17:39.919Z,87
2023-05-12T04:21:05.086Z,88
2023-05-12T04:24:30.274Z,87
2023-05-12T04:27:55.410Z,88
2023-05-12T04:31:20.618Z,89
2023-05-12T04:34:45.779Z,90
2023-05-12T04:38:11.004Z,90
2023-05-12T04:41:36.154Z,90
2023-05-12T04:45:01.307Z,91
2023-05-12T04:48:26.474Z,91
2023-05-12T04:51:51.690Z,90
2023-05-12T04:55:16.898Z,88
2023-05-12T04:58:42.046Z,86
2023-05-12T05:02:07.229Z,86
2023-05-12T05:05:32.429Z,86
2023-05-12T05:08:57.605Z,86
2023-05-12T05:12:22.814Z,86
2023-05-12T05:15:48.002Z,86
2023-05-12T05:19:20.597Z,86
2023-05-12T05:22:38.334Z,86
2023-05-12T05:26:03.507Z,86
2023-05-12T05:29:28.730Z,87
2023-05-12T05:32:53.915Z,87
2023-05-12T05:36:19.317Z,87
2023-05-12T05:39:44.521Z,86
2023-05-12T05:43:09.696Z,86
2023-05-12T05:46:34.952Z,86
2023-05-12T05:50:00.206Z,86
2023-05-12T05:53:25.284Z,86
2023-05-12T05:56:50.476Z,86
2023-05-12T06:00:15.642Z,87
2023-05-12T06:03:41.007Z,87
2023-05-12T06:07:06.044Z,87
2023-05-12T06:10:31.221Z,87
2023-05-12T06:13:56.426Z,87
2023-05-12T06:17:21.624Z,87
2023-05-12T06:20:46.877Z,87
2023-05-12T06:24:11.974Z,87
2023-05-12T06:27:37.153Z,87
2023-05-12T06:31:02.361Z,87
2023-05-12T06:34:27.579Z,87
2023-05-12T06:37:52.771Z,88
2023-05-12T06:41:17.930Z,88
2023-05-12T06:44:43.136Z,88
2023-05-12T06:48:08.369Z,88
2023-05-12T06:51:33.524Z,87
2023-05-12T06:54:58.793Z,89
2023-05-12T06:58:23.906Z,88
2023-05-12T07:01:49.100Z,88
2023-05-12T07:05:14.309Z,88
2023-05-12T07:08:39.460Z,88
2023-05-12T07:12:04.648Z,87
2023-05-12T07:15:31.232Z,87
2023-05-12T07:18:55.065Z,84
2023-05-12T07:22:20.257Z,86
2023-05-12T07:25:45.462Z,87
2023-05-12T07:29:12.850Z,86
2023-05-12T07:32:35.853Z,85
2023-05-12T07:36:01.031Z,83
2023-05-12T07:39:26.186Z,81
2023-05-12T07:42:51.355Z,79
2023-05-12T07:46:16.590Z,80
2023-05-12T07:49:43.185Z,78
2023-05-12T07:53:08.347Z,78
2023-05-12T07:56:33.511Z,79
2023-05-12T07:59:59.511Z,79
2023-05-12T08:03:23.951Z,78
2023-05-12T08:06:49.052Z,75
2023-05-12T08:10:14.228Z,77
2023-05-12T08:13:39.435Z,75
2023-05-12T08:17:04.609Z,75
2023-05-12T08:20:29.870Z,74
2023-05-12T08:23:54.948Z,76
2023-05-12T08:27:20.980Z,78
2023-05-12T08:30:46.194Z,80
2023-05-12T08:34:11.409Z,74
2023-05-12T08:37:36.564Z,76
2023-05-12T08:41:01.693Z,68
2023-05-12T08:44:26.851Z,67
2023-05-12T08:47:52.073Z,68
2023-05-12T08:51:17.406Z,67
2023-05-12T08:54:52.593Z,70
2023-05-12T08:58:09.540Z,66
2023-05-12T09:01:34.229Z,65
2023-05-12T09:04:58.123Z,66
2023-05-12T09:08:23.307Z,67
2023-05-12T09:11:48.538Z,68
2023-05-12T09:15:13.691Z,69
2023-05-12T09:18:38.873Z,68
2023-05-12T09:22:04.042Z,71
2023-05-12T09:25:29.232Z,68
2023-05-12T09:28:54.518Z,72
2023-05-12T09:32:19.645Z,64
2023-05-12T09:35:44.830Z,66
2023-05-12T09:39:10.056Z,67
2023-05-12T09:42:35.472Z,69
2023-05-12T09:46:00.988Z,65
2023-05-12T09:49:25.903Z,62
2023-05-12T09:52:51.103Z,66
2023-05-12T09:56:16.310Z,65
2023-05-12T09:59:43.634Z,66
2023-05-12T10:03:06.846Z,65
2023-05-12T10:06:31.895Z,67
2023-05-12T10:09:57.715Z,65
2023-05-12T10:13:22.942Z,64
2023-05-12T10:16:48.229Z,68
2023-05-12T10:20:13.481Z,65
2023-05-12T10:23:38.622Z,65
2023-05-12T10:27:03.837Z,66
2023-05-12T10:30:29.031Z,67
2023-05-12T10:33:54.236Z,67
2023-05-12T10:37:20.318Z,65
2023-05-12T10:40:45.427Z,65
2023-05-12T10:44:10.625Z,67
2023-05-12T10:47:35.861Z,67
2023-05-12T10:51:01.059Z,69
2023-05-12T10:54:26.428Z,71
2023-05-12T10:57:52.441Z,73
2023-05-12T11:01:17.705Z,75
2023-05-12T11:04:43.107Z,75
2023-05-12T11:08:09.313Z,75
2023-05-12T11:11:34.354Z,75
2023-05-12T11:14:59.031Z,75
2023-05-12T11:18:24.309Z,71
2023-05-12T11:21:49.523Z,70
2023-05-12T11:25:14.730Z,72
2023-05-12T11:28:40.113Z,69
2023-05-12T11:32:05.181Z,68
2023-05-12T11:35:30.388Z,70
2023-05-12T11:38:55.643Z,72
2023-05-12T11:42:22.288Z,72
2023-05-12T11:45:46.189Z,73
2023-05-12T11:49:11.303Z,72
2023-05-12T11:52:36.542Z,73
2023-05-12T11:56:01.784Z,73
2023-05-12T11:59:27.340Z,73
2023-05-12T12:02:52.658Z,70
2023-05-12T12:06:17.774Z,70
2023-05-12T12:09:43.014Z,68
2023-05-12T12:13:08.231Z,68
2023-05-12T12:16:33.656Z,68
2023-05-12T12:19:58.685Z,65
2023-05-12T12:23:23.864Z,64
2023-05-12T12:26:49.089Z,65
2023-05-12T12:30:14.351Z,62
2023-05-12T12:33:39.588Z,63
2023-05-12T12:37:04.796Z,63
2023-05-12T12:40:29.967Z,63
2023-05-12T12:43:55.227Z,64
2023-05-12T12:47:20.447Z,66
2023-05-12T12:50:45.683Z,65
2023-05-12T12:54:11.014Z,65
2023-05-12T12:57:36.147Z,63
2023-05-12T13:01:01.381Z,64
2023-05-12T13:04:26.583Z,67
2023-05-12T13:07:51.876Z,68
2023-05-12T13:11:17.124Z,67
2023-05-12T13:14:42.287Z,67
2023-05-12T13:18:07.525Z,67
2023-05-12T13:21:32.761Z,67
2023-05-12T13:24:57.993Z,65
2023-05-12T13:28:23.254Z,67
2023-05-12T13:31:48.464Z,64
2023-05-12T13:35:13.704Z,64
2023-05-12T13:38:38.909Z,60
2023-05-12T13:42:04.152Z,58
2023-05-12T13:45:29.492Z,59
2023-05-12T13:48:54.746Z,62
2023-05-12T13:52:19.963Z,62
2023-05-12T13:55:45.211Z,61
2023-05-12T13:59:10.485Z,60
2023-05-12T14:02:35.704Z,60
2023-05-12T14:06:00.897Z,61
2023-05-12T14:09:26.090Z,60
2023-05-12T14:12:51.287Z,62
2023-05-12T14:16:16.504Z,60
2023-05-12T14:19:41.770Z,58
2023-05-12T14:23:06.906Z,60
2023-05-12T14:26:32.073Z,58
2023-05-12T14:29:57.362Z,63
2023-05-12T14:33:22.527Z,60
2023-05-12T14:36:47.820Z,63
2023-05-12T14:40:12.985Z,62
2023-05-12T14:43:38.222Z,61
2023-05-12T14:47:03.435Z,61
2023-05-12T14:50:28.683Z,62
2023-05-12T14:53:53.952Z,62
2023-05-12T14:57:19.148Z,62
2023-05-12T15:00:44.575Z,63
2023-05-12T15:04:09.793Z,61
2023-05-12T15:07:35.013Z,61
2023-05-12T15:11:00.276Z,62
2023-05-12T15:46:16.237Z,61
2023-05-12T15:49:41.433Z,63
2023-05-12T15:53:06.664Z,63
2023-05-12T15:56:31.911Z,65
2023-05-12T15:59:57.193Z,66
2023-05-12T16:03:22.446Z,65
2023-05-12T16:06:47.570Z,64
2023-05-12T16:10:12.794Z,67
2023-05-12T16:13:38.054Z,67
2023-05-12T16:17:03.289Z,68
2023-05-12T16:20:28.551Z,68
2023-05-12T16:23:53.729Z,66
2023-05-12T16:27:18.967Z,61
2023-05-12T16:30:44.208Z,62
2023-05-12T16:34:09.455Z,63
2023-05-12T16:37:34.702Z,63
2023-05-12T16:40:59.918Z,62
2023-05-12T16:44:25.172Z,61
2023-05-12T16:47:50.434Z,63
2023-05-12T16:51:15.642Z,63
2023-05-12T16:54:40.894Z,64
2023-05-12T16:58:06.114Z,62
2023-05-12T17:01:32.383Z,63
2023-05-12T17:04:57.349Z,65
2023-05-12T17:08:22.593Z,64
2023-05-12T17:11:47.794Z,65
2023-05-12T17:15:12.988Z,65
2023-05-12T17:22:03.418Z,64
2023-05-12T17:25:29.681Z,65
2023-05-12T17:28:53.851Z,65
2023-05-12T17:32:19.101Z,66
2023-05-12T17:35:49.021Z,66
2023-05-12T17:39:09.624Z,64
2023-05-12T17:42:34.899Z,66
2023-05-12T17:46:00.174Z,63
2023-05-12T17:49:25.406Z,66
2023-05-12T17:52:50.640Z,68
2023-05-12T17:56:15.957Z,68
2023-05-12T17:59:41.181Z,68
2023-05-12T18:03:06.475Z,70
2023-05-12T18:06:31.886Z,69
2023-05-12T18:09:57.173Z,67
2023-05-12T18:13:22.396Z,69
2023-05-12T18:16:47.669Z,71
2023-05-12T18:20:12.880Z,72
2023-05-12T18:23:38.109Z,74
2023-05-12T18:27:05.263Z,75
2023-05-12T18:30:28.566Z,74
2023-05-12T18:33:53.797Z,73
2023-05-12T18:37:19.071Z,73
2023-05-12T18:40:44.236Z,73
2023-05-12T18:44:09.441Z,74
2023-05-12T18:47:34.827Z,77
2023-05-12T18:51:00.049Z,76
2023-05-12T18:54:25.335Z,78
2023-05-12T18:57:50.510Z,80
2023-05-12T19:01:15.775Z,81
2023-05-12T19:04:42.200Z,81
2023-05-12T19:08:07.380Z,82
2023-05-12T19:11:32.666Z,82
2023-05-12T19:14:57.923Z,83
2023-05-12T19:18:23.186Z,84
2023-05-12T19:21:48.348Z,85
2023-05-12T19:25:13.615Z,86
2023-05-12T19:28:38.927Z,86
2023-05-12T19:32:04.123Z,86
2023-05-12T19:35:29.293Z,86
2023-05-12T19:38:54.511Z,86
2023-05-12T19:42:19.708Z,86
2023-05-12T19:45:44.945Z,86
2023-05-12T19:49:10.116Z,86
2023-05-12T19:52:35.363Z,86
2023-05-12T19:56:00.590Z,86
2023-05-12T19:59:25.807Z,85
2023-05-12T20:02:51.184Z,85
2023-05-12T20:06:16.272Z,85
2023-05-12T20:09:41.505Z,85
2023-05-12T20:13:06.725Z,85
2023-05-12T20:16:31.969Z,85
2023-05-12T20:19:57.241Z,84
2023-05-12T20:23:22.343Z,85
2023-05-12T20:26:47.532Z,85
2023-05-12T20:30:12.730Z,85
2023-05-12T20:33:37.901Z,85
2023-05-12T20:37:03.083Z,86
2023-05-12T20:40:28.227Z,86
2023-05-12T20:43:53.420Z,87
2023-05-12T20:47:18.658Z,87
2023-05-12T20:50:43.770Z,87
2023-05-12T20:54:08.952Z,87
2023-05-12T20:57:34.130Z,87
2023-05-12T21:00:59.899Z,87
2023-05-12T21:04:25.085Z,87
2023-05-12T21:07:50.237Z,87
2023-05-12T21:11:15.429Z,87
2023-05-12T21:14:40.614Z,86
2023-05-12T21:18:05.810Z,86
2023-05-12T21:21:30.910Z,85
2023-05-12T21:24:56.081Z,86
2023-05-12T21:28:21.371Z,86
2023-05-12T21:31:46.462Z,86
2023-05-12T21:35:11.597Z,85
2023-05-12T21:38:36.755Z,85
2023-05-12T21:42:01.935Z,85
2023-05-12T21:45:27.139Z,85
2023-05-12T21:48:52.292Z,85
2023-05-12T21:52:17.460Z,85
2023-05-12T21:55:42.635Z,84
2023-05-12T21:59:07.818Z,85
2023-05-12T22:02:33.030Z,85
2023-05-12T22:05:58.157Z,86
2023-05-12T22:09:23.342Z,86
2023-05-12T22:12:48.520Z,85
2023-05-12T22:16:13.742Z,85
2023-05-12T22:19:38.872Z,86
2023-05-12T22:23:03.986Z,86
2023-05-12T22:26:29.138Z,84
2023-05-12T22:29:54.307Z,84
2023-05-12T22:33:19.457Z,84
2023-05-12T22:36:44.682Z,85
2023-05-12T22:40:09.766Z,85
2023-05-12T22:43:34.948Z,85
2023-05-12T22:47:00.151Z,85
2023-05-12T22:50:25.291Z,85
2023-05-12T22:53:50.479Z,85
2023-05-12T22:57:15.619Z,85
2023-05-12T23:00:40.806Z,84
2023-05-12T23:04:06.013Z,84
2023-05-12T23:07:31.149Z,83
2023-05-12T23:10:56.354Z,82
2023-05-12T23:14:21.523Z,84
2023-05-12T23:17:46.797Z,84
2023-05-12T23:21:11.858Z,83
2023-05-12T23:24:37.008Z,83
2023-05-12T23:28:02.210Z,81
2023-05-12T23:31:27.358Z,81
2023-05-12T23:34:52.504Z,81
2023-05-12T23:38:17.686Z,81
2023-05-12T23:41:42.861Z,83
2023-05-12T23:45:08.041Z,83
2023-05-12T23:48:33.226Z,82
2023-05-12T23:51:58.378Z,81
2023-05-12T23:55:23.570Z,81
2023-05-12T23:58:48.717Z,82
